sensor_id;sensor_type;location;lat;lon;timestamp;pressure;altitude;pressure_sealevel;temperature;humidity
64675;BME280;51090;51.512;11.332;2023-01-29T00:01:43;100564.03;;;-1.43;98.60
64675;BME280;51090;51.512;11.332;2023-01-29T00:04:09;100567.47;;;-1.42;98.82
64675;BME280;51090;51.512;11.332;2023-01-29T00:06:35;100566.63;;;-1.43;98.45
64675;BME280;51090;51.512;11.332;2023-01-29T00:09:00;100565.88;;;-1.45;98.50
64675;BME280;51090;51.512;11.332;2023-01-29T00:11:26;100559.75;;;-1.44;98.13
64675;BME280;51090;51.512;11.332;2023-01-29T00:13:52;100558.81;;;-1.43;98.35
64675;BME280;51090;51.512;11.332;2023-01-29T00:16:18;100556.56;;;-1.49;97.88
64675;BME280;51090;51.512;11.332;2023-01-29T00:18:45;100555.78;;;-1.51;97.91
64675;BME280;51090;51.512;11.332;2023-01-29T00:21:16;100567.88;;;-1.50;96.96
64675;BME280;51090;51.512;11.332;2023-01-29T00:23:42;100560.56;;;-1.59;97.77
64675;BME280;51090;51.512;11.332;2023-01-29T00:26:08;100559.78;;;-1.61;97.99
64675;BME280;51090;51.512;11.332;2023-01-29T00:28:34;100559.78;;;-1.61;97.84
64675;BME280;51090;51.512;11.332;2023-01-29T00:31:09;100553.75;;;-1.62;97.68
64675;BME280;51090;51.512;11.332;2023-01-29T00:33:35;100558.03;;;-1.61;97.86
64675;BME280;51090;51.512;11.332;2023-01-29T00:36:06;100547.56;;;-1.59;97.72
64675;BME280;51090;51.512;11.332;2023-01-29T00:38:33;100541.59;;;-1.61;97.47
64675;BME280;51090;51.512;11.332;2023-01-29T00:41:15;100539.50;;;-1.55;96.37
64675;BME280;51090;51.512;11.332;2023-01-29T00:44:00;100540.50;;;-1.57;97.63
64675;BME280;51090;51.512;11.332;2023-01-29T00:46:45;100534.38;;;-1.56;96.81
64675;BME280;51090;51.512;11.332;2023-01-29T00:49:11;100531.78;;;-1.56;96.07
64675;BME280;51090;51.512;11.332;2023-01-29T00:51:38;100535.88;;;-1.52;97.96
64675;BME280;51090;51.512;11.332;2023-01-29T00:54:04;100529.44;;;-1.45;98.46
64675;BME280;51090;51.512;11.332;2023-01-29T00:56:35;100527.13;;;-1.34;98.32
64675;BME280;51090;51.512;11.332;2023-01-29T00:59:02;100531.06;;;-1.26;98.30
64675;BME280;51090;51.512;11.332;2023-01-29T01:01:28;100517.88;;;-1.23;97.94
64675;BME280;51090;51.512;11.332;2023-01-29T01:04:12;100516.72;;;-1.18;96.57
64675;BME280;51090;51.512;11.332;2023-01-29T01:06:40;100508.22;;;-1.21;96.64
64675;BME280;51090;51.512;11.332;2023-01-29T01:09:07;100503.19;;;-1.24;96.62
64675;BME280;51090;51.512;11.332;2023-01-29T01:11:52;100505.03;;;-1.26;96.50
64675;BME280;51090;51.512;11.332;2023-01-29T01:14:19;100502.34;;;-1.25;96.18
64675;BME280;51090;51.512;11.332;2023-01-29T01:16:46;100502.44;;;-1.26;94.84
64675;BME280;51090;51.512;11.332;2023-01-29T01:19:13;100492.53;;;-1.36;95.71
64675;BME280;51090;51.512;11.332;2023-01-29T01:21:40;100504.53;;;-1.33;98.24
64675;BME280;51090;51.512;11.332;2023-01-29T01:24:11;100507.22;;;-1.35;97.08
64675;BME280;51090;51.512;11.332;2023-01-29T01:26:37;100510.75;;;-1.36;98.78
64675;BME280;51090;51.512;11.332;2023-01-29T01:29:03;100498.56;;;-1.35;100.00
64675;BME280;51090;51.512;11.332;2023-01-29T01:31:28;100505.97;;;-1.27;99.89
64675;BME280;51090;51.512;11.332;2023-01-29T01:33:54;100513.19;;;-1.17;99.96
64675;BME280;51090;51.512;11.332;2023-01-29T01:36:20;100513.53;;;-1.07;99.95
64675;BME280;51090;51.512;11.332;2023-01-29T01:38:46;100502.88;;;-1.02;99.49
64675;BME280;51090;51.512;11.332;2023-01-29T01:41:16;100511.75;;;-0.91;99.81
64675;BME280;51090;51.512;11.332;2023-01-29T01:43:53;100503.94;;;-0.91;98.80
64675;BME280;51090;51.512;11.332;2023-01-29T01:46:21;100497.13;;;-0.93;97.44
64675;BME280;51090;51.512;11.332;2023-01-29T01:49:01;100495.72;;;-0.99;97.51
64675;BME280;51090;51.512;11.332;2023-01-29T01:51:30;100502.94;;;-1.04;97.61
64675;BME280;51090;51.512;11.332;2023-01-29T01:54:05;100512.19;;;-1.14;95.89
64675;BME280;51090;51.512;11.332;2023-01-29T01:56:37;100509.47;;;-1.28;97.50
64675;BME280;51090;51.512;11.332;2023-01-29T01:59:09;100496.22;;;-1.40;98.49
64675;BME280;51090;51.512;11.332;2023-01-29T02:01:37;100494.72;;;-1.44;99.24
64675;BME280;51090;51.512;11.332;2023-01-29T02:04:19;100486.31;;;-1.49;98.92
64675;BME280;51090;51.512;11.332;2023-01-29T02:07:08;100489.22;;;-1.55;99.52
64675;BME280;51090;51.512;11.332;2023-01-29T02:10:11;100496.03;;;-1.52;99.96
64675;BME280;51090;51.512;11.332;2023-01-29T02:12:38;100495.59;;;-1.61;99.96
64675;BME280;51090;51.512;11.332;2023-01-29T02:15:06;100477.22;;;-1.73;100.00
64675;BME280;51090;51.512;11.332;2023-01-29T02:17:32;100501.28;;;-1.70;100.00
64675;BME280;51090;51.512;11.332;2023-01-29T02:20:24;100498.59;;;-1.68;100.00
64675;BME280;51090;51.512;11.332;2023-01-29T02:25:39;100517.75;;;-1.69;100.00
64675;BME280;51090;51.512;11.332;2023-01-29T02:29:13;100516.53;;;-1.80;100.00
64675;BME280;51090;51.512;11.332;2023-01-29T02:31:41;100520.13;;;-1.82;100.00
64675;BME280;51090;51.512;11.332;2023-01-29T02:34:53;100514.25;;;-1.86;100.00
64675;BME280;51090;51.512;11.332;2023-01-29T02:40:57;100509.19;;;-1.89;100.00
64675;BME280;51090;51.512;11.332;2023-01-29T02:43:47;100511.75;;;-1.87;100.00
64675;BME280;51090;51.512;11.332;2023-01-29T02:46:35;100494.22;;;-2.01;100.00
64675;BME280;51090;51.512;11.332;2023-01-29T02:49:44;100497.44;;;-1.96;100.00
64675;BME280;51090;51.512;11.332;2023-01-29T02:52:23;100501.63;;;-1.93;100.00
64675;BME280;51090;51.512;11.332;2023-01-29T02:54:59;100499.81;;;-1.91;100.00
64675;BME280;51090;51.512;11.332;2023-01-29T02:57:35;100500.03;;;-1.96;100.00
64675;BME280;51090;51.512;11.332;2023-01-29T03:00:19;100498.38;;;-1.97;100.00
64675;BME280;51090;51.512;11.332;2023-01-29T03:02:59;100497.38;;;-1.94;100.00
64675;BME280;51090;51.512;11.332;2023-01-29T03:05:55;100495.59;;;-1.94;100.00
64675;BME280;51090;51.512;11.332;2023-01-29T03:08:44;100478.34;;;-2.12;100.00
64675;BME280;51090;51.512;11.332;2023-01-29T03:11:15;100484.16;;;-2.25;100.00
64675;BME280;51090;51.512;11.332;2023-01-29T03:14:10;100498.97;;;-2.44;100.00
64675;BME280;51090;51.512;11.332;2023-01-29T03:16:50;100480.50;;;-2.55;100.00
64675;BME280;51090;51.512;11.332;2023-01-29T03:19:37;100487.00;;;-2.64;100.00
64675;BME280;51090;51.512;11.332;2023-01-29T03:22:05;100482.09;;;-2.70;100.00
64675;BME280;51090;51.512;11.332;2023-01-29T03:24:56;100491.22;;;-2.61;100.00
64675;BME280;51090;51.512;11.332;2023-01-29T03:27:48;100482.28;;;-2.56;100.00
64675;BME280;51090;51.512;11.332;2023-01-29T03:30:59;100477.84;;;-2.54;100.00
64675;BME280;51090;51.512;11.332;2023-01-29T03:34:06;100481.13;;;-2.50;100.00
64675;BME280;51090;51.512;11.332;2023-01-29T03:36:41;100493.06;;;-2.46;100.00
64675;BME280;51090;51.512;11.332;2023-01-29T03:39:11;100491.34;;;-2.47;100.00
64675;BME280;51090;51.512;11.332;2023-01-29T03:41:57;100495.56;;;-2.45;100.00
64675;BME280;51090;51.512;11.332;2023-01-29T03:47:50;100502.44;;;-2.44;100.00
64675;BME280;51090;51.512;11.332;2023-01-29T03:56:50;100488.84;;;-2.49;99.58
64675;BME280;51090;51.512;11.332;2023-01-29T03:59:44;100494.78;;;-2.47;99.60
64675;BME280;51090;51.512;11.332;2023-01-29T04:02:19;100477.06;;;-2.56;100.00
64675;BME280;51090;51.512;11.332;2023-01-29T04:04:56;100482.94;;;-2.52;100.00
64675;BME280;51090;51.512;11.332;2023-01-29T04:07:24;100482.88;;;-2.51;100.00
64675;BME280;51090;51.512;11.332;2023-01-29T04:09:57;100481.78;;;-2.47;100.00
64675;BME280;51090;51.512;11.332;2023-01-29T04:12:30;100477.31;;;-2.43;99.16
64675;BME280;51090;51.512;11.332;2023-01-29T04:15:01;100476.75;;;-2.50;99.67
64675;BME280;51090;51.512;11.332;2023-01-29T04:17:38;100476.53;;;-2.45;98.31
64675;BME280;51090;51.512;11.332;2023-01-29T04:20:05;100465.16;;;-2.60;98.03
64675;BME280;51090;51.512;11.332;2023-01-29T04:22:34;100478.22;;;-2.61;97.46
64675;BME280;51090;51.512;11.332;2023-01-29T04:25:05;100472.84;;;-2.76;98.57
64675;BME280;51090;51.512;11.332;2023-01-29T04:27:55;100472.22;;;-2.81;99.90
64675;BME280;51090;51.512;11.332;2023-01-29T04:33:31;100472.22;;;-2.81;100.00
64675;BME280;51090;51.512;11.332;2023-01-29T04:39:30;100468.50;;;-2.75;99.39
64675;BME280;51090;51.512;11.332;2023-01-29T04:42:30;100461.63;;;-2.76;100.00
64675;BME280;51090;51.512;11.332;2023-01-29T04:55:44;100433.69;;;-2.54;100.00
64675;BME280;51090;51.512;11.332;2023-01-29T04:58:38;100436.75;;;-2.46;98.26
64675;BME280;51090;51.512;11.332;2023-01-29T05:01:11;100433.31;;;-2.46;99.74
64675;BME280;51090;51.512;11.332;2023-01-29T05:03:40;100426.34;;;-2.46;100.00
64675;BME280;51090;51.512;11.332;2023-01-29T05:06:09;100431.16;;;-2.38;100.00
64675;BME280;51090;51.512;11.332;2023-01-29T05:08:36;100420.66;;;-2.36;100.00
64675;BME280;51090;51.512;11.332;2023-01-29T05:11:04;100429.59;;;-2.25;100.00
64675;BME280;51090;51.512;11.332;2023-01-29T05:13:31;100412.47;;;-2.29;100.00
64675;BME280;51090;51.512;11.332;2023-01-29T05:16:12;100416.44;;;-2.22;100.00
64675;BME280;51090;51.512;11.332;2023-01-29T05:18:39;100415.44;;;-2.19;100.00
64675;BME280;51090;51.512;11.332;2023-01-29T05:21:07;100412.38;;;-2.10;100.00
64675;BME280;51090;51.512;11.332;2023-01-29T05:23:33;100410.47;;;-2.06;100.00
64675;BME280;51090;51.512;11.332;2023-01-29T05:25:59;100407.56;;;-2.00;100.00
64675;BME280;51090;51.512;11.332;2023-01-29T05:28:25;100400.94;;;-1.90;100.00
64675;BME280;51090;51.512;11.332;2023-01-29T05:30:54;100387.69;;;-1.85;100.00
64675;BME280;51090;51.512;11.332;2023-01-29T05:33:26;100389.88;;;-1.78;96.86
64675;BME280;51090;51.512;11.332;2023-01-29T05:35:53;100383.75;;;-1.77;99.41
64675;BME280;51090;51.512;11.332;2023-01-29T05:38:21;100386.13;;;-1.72;98.80
64675;BME280;51090;51.512;11.332;2023-01-29T05:40:47;100383.41;;;-1.70;99.24
64675;BME280;51090;51.512;11.332;2023-01-29T05:43:22;100368.56;;;-1.68;97.67
64675;BME280;51090;51.512;11.332;2023-01-29T05:45:57;100371.25;;;-1.70;100.00
64675;BME280;51090;51.512;11.332;2023-01-29T05:48:25;100382.75;;;-1.58;100.00
64675;BME280;51090;51.512;11.332;2023-01-29T05:50:52;100384.28;;;-1.54;100.00
64675;BME280;51090;51.512;11.332;2023-01-29T05:53:18;100386.00;;;-1.55;100.00
64675;BME280;51090;51.512;11.332;2023-01-29T05:55:47;100379.72;;;-1.50;100.00
64675;BME280;51090;51.512;11.332;2023-01-29T05:58:13;100398.69;;;-1.48;100.00
64675;BME280;51090;51.512;11.332;2023-01-29T06:00:40;100394.56;;;-1.52;100.00
64675;BME280;51090;51.512;11.332;2023-01-29T06:03:06;100404.91;;;-1.51;100.00
64675;BME280;51090;51.512;11.332;2023-01-29T06:05:32;100398.34;;;-1.58;100.00
64675;BME280;51090;51.512;11.332;2023-01-29T06:07:57;100419.59;;;-1.50;100.00
64675;BME280;51090;51.512;11.332;2023-01-29T06:10:23;100407.16;;;-1.45;100.00
64675;BME280;51090;51.512;11.332;2023-01-29T06:12:49;100408.59;;;-1.39;100.00
64675;BME280;51090;51.512;11.332;2023-01-29T06:15:14;100403.88;;;-1.33;100.00
64675;BME280;51090;51.512;11.332;2023-01-29T06:17:41;100417.06;;;-1.20;100.00
64675;BME280;51090;51.512;11.332;2023-01-29T06:20:08;100408.25;;;-1.17;100.00
64675;BME280;51090;51.512;11.332;2023-01-29T06:22:33;100407.69;;;-1.08;100.00
64675;BME280;51090;51.512;11.332;2023-01-29T06:24:59;100401.41;;;-1.04;100.00
64675;BME280;51090;51.512;11.332;2023-01-29T06:27:25;100411.47;;;-0.98;100.00
64675;BME280;51090;51.512;11.332;2023-01-29T06:29:51;100418.00;;;-0.91;100.00
64675;BME280;51090;51.512;11.332;2023-01-29T06:32:16;100426.22;;;-0.82;100.00
64675;BME280;51090;51.512;11.332;2023-01-29T06:34:42;100435.47;;;-0.77;100.00
64675;BME280;51090;51.512;11.332;2023-01-29T06:37:08;100428.31;;;-0.73;100.00
64675;BME280;51090;51.512;11.332;2023-01-29T06:39:33;100431.66;;;-0.71;100.00
64675;BME280;51090;51.512;11.332;2023-01-29T06:41:59;100451.22;;;-0.64;100.00
64675;BME280;51090;51.512;11.332;2023-01-29T06:44:25;100444.25;;;-0.63;100.00
64675;BME280;51090;51.512;11.332;2023-01-29T06:46:51;100448.88;;;-0.69;100.00
64675;BME280;51090;51.512;11.332;2023-01-29T06:49:16;100433.25;;;-0.69;100.00
64675;BME280;51090;51.512;11.332;2023-01-29T06:51:42;100445.91;;;-0.62;100.00
64675;BME280;51090;51.512;11.332;2023-01-29T06:54:11;100443.63;;;-0.53;100.00
64675;BME280;51090;51.512;11.332;2023-01-29T06:56:37;100453.22;;;-0.53;100.00
64675;BME280;51090;51.512;11.332;2023-01-29T06:59:02;100471.75;;;-0.43;100.00
64675;BME280;51090;51.512;11.332;2023-01-29T07:01:28;100471.22;;;-0.34;100.00
64675;BME280;51090;51.512;11.332;2023-01-29T07:03:54;100477.75;;;-0.27;100.00
64675;BME280;51090;51.512;11.332;2023-01-29T07:06:19;100455.56;;;-0.34;100.00
64675;BME280;51090;51.512;11.332;2023-01-29T07:08:45;100482.81;;;-0.10;100.00
64675;BME280;51090;51.512;11.332;2023-01-29T07:11:12;100481.03;;;-0.09;100.00
64675;BME280;51090;51.512;11.332;2023-01-29T07:13:37;100476.75;;;-0.10;100.00
64675;BME280;51090;51.512;11.332;2023-01-29T07:16:04;100471.94;;;-0.02;100.00
64675;BME280;51090;51.512;11.332;2023-01-29T07:18:31;100468.19;;;0.02;100.00
64675;BME280;51090;51.512;11.332;2023-01-29T07:20:57;100480.50;;;0.14;100.00
64675;BME280;51090;51.512;11.332;2023-01-29T07:23:24;100467.94;;;0.21;100.00
64675;BME280;51090;51.512;11.332;2023-01-29T07:25:50;100458.78;;;0.28;100.00
64675;BME280;51090;51.512;11.332;2023-01-29T07:28:17;100466.59;;;0.42;100.00
64675;BME280;51090;51.512;11.332;2023-01-29T07:30:43;100461.31;;;0.44;100.00
64675;BME280;51090;51.512;11.332;2023-01-29T07:33:10;100454.84;;;0.50;100.00
64675;BME280;51090;51.512;11.332;2023-01-29T07:35:41;100440.50;;;0.57;100.00
64675;BME280;51090;51.512;11.332;2023-01-29T07:38:08;100426.31;;;0.61;100.00
64675;BME280;51090;51.512;11.332;2023-01-29T07:40:35;100440.56;;;0.70;100.00
64675;BME280;51090;51.512;11.332;2023-01-29T07:43:04;100438.59;;;0.73;100.00
64675;BME280;51090;51.512;11.332;2023-01-29T07:45:32;100446.75;;;0.81;100.00
64675;BME280;51090;51.512;11.332;2023-01-29T07:47:58;100443.03;;;0.85;100.00
64675;BME280;51090;51.512;11.332;2023-01-29T07:50:25;100433.22;;;0.89;100.00
64675;BME280;51090;51.512;11.332;2023-01-29T07:52:53;100434.09;;;1.02;100.00
64675;BME280;51090;51.512;11.332;2023-01-29T07:55:19;100440.41;;;1.13;100.00
64675;BME280;51090;51.512;11.332;2023-01-29T07:57:45;100441.06;;;1.16;100.00
64675;BME280;51090;51.512;11.332;2023-01-29T08:00:12;100447.56;;;1.23;100.00
64675;BME280;51090;51.512;11.332;2023-01-29T08:02:40;100440.88;;;1.32;100.00
64675;BME280;51090;51.512;11.332;2023-01-29T08:05:06;100410.44;;;1.18;100.00
64675;BME280;51090;51.512;11.332;2023-01-29T08:07:32;100437.97;;;1.37;100.00
64675;BME280;51090;51.512;11.332;2023-01-29T08:09:57;100426.28;;;1.42;100.00
64675;BME280;51090;51.512;11.332;2023-01-29T08:12:23;100421.28;;;1.52;100.00
64675;BME280;51090;51.512;11.332;2023-01-29T08:14:49;100432.97;;;1.59;100.00
64675;BME280;51090;51.512;11.332;2023-01-29T08:17:15;100403.28;;;1.47;100.00
64675;BME280;51090;51.512;11.332;2023-01-29T08:19:40;100455.28;;;1.65;100.00
64675;BME280;51090;51.512;11.332;2023-01-29T08:22:06;100475.75;;;1.58;100.00
64675;BME280;51090;51.512;11.332;2023-01-29T08:24:32;100486.28;;;1.44;100.00
64675;BME280;51090;51.512;11.332;2023-01-29T08:26:57;100490.25;;;1.37;100.00
64675;BME280;51090;51.512;11.332;2023-01-29T08:29:23;100487.72;;;1.35;100.00
64675;BME280;51090;51.512;11.332;2023-01-29T08:31:49;100471.63;;;1.28;100.00
64675;BME280;51090;51.512;11.332;2023-01-29T08:34:15;100461.59;;;1.35;100.00
64675;BME280;51090;51.512;11.332;2023-01-29T08:36:41;100443.22;;;1.49;100.00
64675;BME280;51090;51.512;11.332;2023-01-29T08:39:06;100437.50;;;1.57;100.00
64675;BME280;51090;51.512;11.332;2023-01-29T08:41:32;100438.34;;;1.70;100.00
64675;BME280;51090;51.512;11.332;2023-01-29T08:43:58;100420.66;;;1.74;100.00
64675;BME280;51090;51.512;11.332;2023-01-29T08:46:25;100425.25;;;1.83;100.00
64675;BME280;51090;51.512;11.332;2023-01-29T08:48:51;100421.91;;;1.94;100.00
64675;BME280;51090;51.512;11.332;2023-01-29T08:51:17;100427.34;;;2.04;100.00
64675;BME280;51090;51.512;11.332;2023-01-29T08:53:43;100406.63;;;2.01;100.00
64675;BME280;51090;51.512;11.332;2023-01-29T08:56:08;100414.25;;;2.16;100.00
64675;BME280;51090;51.512;11.332;2023-01-29T08:58:34;100421.44;;;2.26;100.00
64675;BME280;51090;51.512;11.332;2023-01-29T09:01:09;100415.56;;;2.35;100.00
64675;BME280;51090;51.512;11.332;2023-01-29T09:03:35;100419.44;;;2.42;100.00
64675;BME280;51090;51.512;11.332;2023-01-29T09:06:02;100413.44;;;2.53;100.00
64675;BME280;51090;51.512;11.332;2023-01-29T09:08:27;100400.75;;;2.59;100.00
64675;BME280;51090;51.512;11.332;2023-01-29T09:10:53;100405.00;;;2.73;100.00
64675;BME280;51090;51.512;11.332;2023-01-29T09:13:19;100382.75;;;2.79;100.00
64675;BME280;51090;51.512;11.332;2023-01-29T09:15:44;100382.22;;;2.98;100.00
64675;BME280;51090;51.512;11.332;2023-01-29T09:18:10;100377.53;;;3.14;100.00
64675;BME280;51090;51.512;11.332;2023-01-29T09:20:36;100375.56;;;3.29;100.00
64675;BME280;51090;51.512;11.332;2023-01-29T09:23:07;100383.34;;;3.53;100.00
64675;BME280;51090;51.512;11.332;2023-01-29T09:25:34;100390.06;;;3.68;100.00
64675;BME280;51090;51.512;11.332;2023-01-29T09:28:00;100399.38;;;3.84;100.00
64675;BME280;51090;51.512;11.332;2023-01-29T09:30:26;100405.00;;;3.90;100.00
64675;BME280;51090;51.512;11.332;2023-01-29T09:32:52;100401.06;;;3.96;100.00
64675;BME280;51090;51.512;11.332;2023-01-29T09:35:18;100400.81;;;3.99;100.00
64675;BME280;51090;51.512;11.332;2023-01-29T09:37:48;100397.22;;;4.00;100.00
64675;BME280;51090;51.512;11.332;2023-01-29T09:43:00;100385.41;;;4.06;100.00
64675;BME280;51090;51.512;11.332;2023-01-29T09:45:28;100400.34;;;4.05;100.00
64675;BME280;51090;51.512;11.332;2023-01-29T09:47:58;100394.84;;;4.08;100.00
64675;BME280;51090;51.512;11.332;2023-01-29T09:53:04;100395.31;;;4.13;100.00
64675;BME280;51090;51.512;11.332;2023-01-29T09:55:44;100374.09;;;4.05;100.00
64675;BME280;51090;51.512;11.332;2023-01-29T09:58:32;100386.72;;;4.23;100.00
64675;BME280;51090;51.512;11.332;2023-01-29T10:04:12;100385.53;;;4.27;100.00
64675;BME280;51090;51.512;11.332;2023-01-29T10:07:32;100379.81;;;4.33;98.77
64675;BME280;51090;51.512;11.332;2023-01-29T10:13:14;100374.03;;;4.50;100.00
64675;BME280;51090;51.512;11.332;2023-01-29T10:16:08;100368.66;;;4.63;100.00
64675;BME280;51090;51.512;11.332;2023-01-29T10:19:04;100371.38;;;4.73;98.71
64675;BME280;51090;51.512;11.332;2023-01-29T10:22:03;100361.78;;;4.83;98.98
64675;BME280;51090;51.512;11.332;2023-01-29T10:24:55;100350.75;;;4.89;97.72
64675;BME280;51090;51.512;11.332;2023-01-29T10:27:24;100348.06;;;5.00;100.00
64675;BME280;51090;51.512;11.332;2023-01-29T10:29:52;100359.94;;;5.16;100.00
64675;BME280;51090;51.512;11.332;2023-01-29T10:32:22;100360.84;;;5.26;98.60
64675;BME280;51090;51.512;11.332;2023-01-29T10:35:00;100348.47;;;5.38;95.56
64675;BME280;51090;51.512;11.332;2023-01-29T10:37:39;100345.19;;;5.45;93.56
64675;BME280;51090;51.512;11.332;2023-01-29T10:40:21;100345.38;;;5.54;95.57
64675;BME280;51090;51.512;11.332;2023-01-29T10:42:57;100339.47;;;5.61;95.51
64675;BME280;51090;51.512;11.332;2023-01-29T10:51:42;100334.19;;;5.61;90.04
64675;BME280;51090;51.512;11.332;2023-01-29T10:56:53;100333.59;;;5.48;92.20
64675;BME280;51090;51.512;11.332;2023-01-29T10:59:35;100311.81;;;5.46;93.37
64675;BME280;51090;51.512;11.332;2023-01-29T11:02:17;100300.91;;;5.51;92.48
64675;BME280;51090;51.512;11.332;2023-01-29T11:04:44;100275.00;;;5.46;96.21
64675;BME280;51090;51.512;11.332;2023-01-29T11:07:11;100298.19;;;5.62;93.66
64675;BME280;51090;51.512;11.332;2023-01-29T11:12:24;100291.88;;;5.74;94.31
64675;BME280;51090;51.512;11.332;2023-01-29T11:18:10;100278.59;;;5.76;87.06
64675;BME280;51090;51.512;11.332;2023-01-29T11:20:44;100288.84;;;5.79;89.42
64675;BME280;51090;51.512;11.332;2023-01-29T11:23:32;100283.28;;;5.72;88.35
64675;BME280;51090;51.512;11.332;2023-01-29T11:25:59;100288.03;;;5.78;91.97
64675;BME280;51090;51.512;11.332;2023-01-29T11:28:47;100271.97;;;5.81;89.90
64675;BME280;51090;51.512;11.332;2023-01-29T11:31:33;100262.81;;;5.85;88.74
64675;BME280;51090;51.512;11.332;2023-01-29T11:34:17;100266.63;;;6.02;89.87
64675;BME280;51090;51.512;11.332;2023-01-29T11:36:43;100257.38;;;6.08;91.88
64675;BME280;51090;51.512;11.332;2023-01-29T11:39:21;100258.38;;;6.17;87.81
64675;BME280;51090;51.512;11.332;2023-01-29T11:42:03;100257.94;;;6.31;89.30
64675;BME280;51090;51.512;11.332;2023-01-29T11:49:57;100242.13;;;6.60;84.31
64675;BME280;51090;51.512;11.332;2023-01-29T11:52:37;100239.38;;;6.52;80.58
64675;BME280;51090;51.512;11.332;2023-01-29T11:57:42;100240.63;;;6.58;86.91
64675;BME280;51090;51.512;11.332;2023-01-29T12:00:25;100226.06;;;6.63;82.81
64675;BME280;51090;51.512;11.332;2023-01-29T12:03:15;100227.06;;;6.52;78.74
64675;BME280;51090;51.512;11.332;2023-01-29T12:06:06;100206.50;;;6.37;82.13
64675;BME280;51090;51.512;11.332;2023-01-29T12:08:37;100208.88;;;6.40;84.09
64675;BME280;51090;51.512;11.332;2023-01-29T12:11:29;100199.59;;;6.36;79.67
64675;BME280;51090;51.512;11.332;2023-01-29T12:14:02;100192.78;;;6.33;82.99
64675;BME280;51090;51.512;11.332;2023-01-29T12:19:43;100184.75;;;6.35;80.77
64675;BME280;51090;51.512;11.332;2023-01-29T12:22:46;100171.44;;;6.36;78.80
64675;BME280;51090;51.512;11.332;2023-01-29T12:25:33;100183.50;;;6.48;83.22
64675;BME280;51090;51.512;11.332;2023-01-29T12:28:35;100182.09;;;6.64;81.29
64675;BME280;51090;51.512;11.332;2023-01-29T12:31:48;100178.75;;;6.81;78.87
64675;BME280;51090;51.512;11.332;2023-01-29T12:40:25;100147.31;;;6.50;80.18
64675;BME280;51090;51.512;11.332;2023-01-29T12:43:00;100157.56;;;6.34;77.30
64675;BME280;51090;51.512;11.332;2023-01-29T12:45:29;100140.00;;;6.25;80.92
64675;BME280;51090;51.512;11.332;2023-01-29T12:48:03;100137.34;;;6.15;78.17
64675;BME280;51090;51.512;11.332;2023-01-29T12:50:36;100126.00;;;6.15;81.29
64675;BME280;51090;51.512;11.332;2023-01-29T12:53:27;100118.22;;;6.32;79.84
64675;BME280;51090;51.512;11.332;2023-01-29T12:56:25;100100.88;;;6.40;80.76
64675;BME280;51090;51.512;11.332;2023-01-29T12:58:54;100112.22;;;6.50;80.53
64675;BME280;51090;51.512;11.332;2023-01-29T13:01:51;100113.59;;;6.54;78.01
64675;BME280;51090;51.512;11.332;2023-01-29T13:04:36;100109.84;;;6.57;78.31
64675;BME280;51090;51.512;11.332;2023-01-29T13:07:13;100115.81;;;6.59;77.53
64675;BME280;51090;51.512;11.332;2023-01-29T13:09:45;100104.16;;;6.51;77.24
64675;BME280;51090;51.512;11.332;2023-01-29T13:12:17;100105.97;;;6.51;81.05
64675;BME280;51090;51.512;11.332;2023-01-29T13:18:01;100112.19;;;6.60;77.89
64675;BME280;51090;51.512;11.332;2023-01-29T13:20:33;100109.44;;;6.51;80.25
64675;BME280;51090;51.512;11.332;2023-01-29T13:23:19;100104.63;;;6.37;77.53
64675;BME280;51090;51.512;11.332;2023-01-29T13:25:52;100112.13;;;6.32;81.79
64675;BME280;51090;51.512;11.332;2023-01-29T13:28:23;100096.56;;;6.29;82.55
64675;BME280;51090;51.512;11.332;2023-01-29T13:31:27;100102.94;;;6.26;79.30
64675;BME280;51090;51.512;11.332;2023-01-29T13:34:14;100092.44;;;5.97;77.34
64675;BME280;51090;51.512;11.332;2023-01-29T13:36:47;100096.72;;;5.88;80.65
64675;BME280;51090;51.512;11.332;2023-01-29T13:41:49;100098.38;;;5.89;81.58
64675;BME280;51090;51.512;11.332;2023-01-29T13:44:36;100101.56;;;5.93;81.59
64675;BME280;51090;51.512;11.332;2023-01-29T13:47:08;100104.63;;;5.88;80.39
64675;BME280;51090;51.512;11.332;2023-01-29T13:49:43;100100.72;;;5.83;82.14
64675;BME280;51090;51.512;11.332;2023-01-29T13:55:18;100102.81;;;5.79;80.86
64675;BME280;51090;51.512;11.332;2023-01-29T13:57:49;100093.78;;;5.62;82.85
64675;BME280;51090;51.512;11.332;2023-01-29T14:10:42;100101.72;;;5.12;84.98
64675;BME280;51090;51.512;11.332;2023-01-29T14:15:45;100103.69;;;5.20;86.48
64675;BME280;51090;51.512;11.332;2023-01-29T14:18:32;100106.72;;;5.25;87.08
64675;BME280;51090;51.512;11.332;2023-01-29T14:21:21;100102.44;;;5.24;86.48
64675;BME280;51090;51.512;11.332;2023-01-29T14:23:57;100098.44;;;5.30;88.05
64675;BME280;51090;51.512;11.332;2023-01-29T14:26:29;100102.59;;;5.42;88.86
64675;BME280;51090;51.512;11.332;2023-01-29T14:29:13;100104.72;;;5.48;86.52
64675;BME280;51090;51.512;11.332;2023-01-29T14:31:56;100098.31;;;5.41;82.76
64675;BME280;51090;51.512;11.332;2023-01-29T14:34:43;100097.34;;;5.32;82.35
64675;BME280;51090;51.512;11.332;2023-01-29T14:39:50;100083.34;;;5.22;81.96
64675;BME280;51090;51.512;11.332;2023-01-29T14:42:26;100084.16;;;5.22;84.12
64675;BME280;51090;51.512;11.332;2023-01-29T14:44:57;100084.28;;;5.21;85.32
64675;BME280;51090;51.512;11.332;2023-01-29T14:49:54;100091.63;;;5.17;85.48
64675;BME280;51090;51.512;11.332;2023-01-29T14:52:37;100079.47;;;5.16;80.61
64675;BME280;51090;51.512;11.332;2023-01-29T14:55:13;100085.97;;;5.22;85.56
64675;BME280;51090;51.512;11.332;2023-01-29T14:57:42;100073.78;;;5.21;85.62